createdAt,value
2018-05-10T00:00:19.500Z,63.80
2018-05-10T00:02:47.810Z,63.50
2018-05-10T00:05:15.367Z,63.50
2018-05-10T00:07:42.995Z,63.40
2018-05-10T00:10:10.500Z,63.70
2018-05-10T00:12:38.063Z,64.10
2018-05-10T00:15:05.603Z,64.30
2018-05-10T00:17:33.150Z,64.50
2018-05-10T00:20:00.700Z,65.80
2018-05-10T00:22:28.996Z,65.10
2018-05-10T00:24:57.376Z,65.00
2018-05-10T00:27:24.898Z,65.00
2018-05-10T00:29:52.456Z,65.70
2018-05-10T00:32:20.016Z,65.20
2018-05-10T00:34:47.552Z,65.20
2018-05-10T00:37:15.851Z,65.20
2018-05-10T00:39:43.410Z,65.20
2018-05-10T00:42:10.986Z,65.50
2018-05-10T00:44:38.501Z,65.60
2018-05-10T00:47:06.029Z,66.00
2018-05-10T00:49:33.558Z,66.10
2018-05-10T00:52:01.103Z,66.10
2018-05-10T00:54:41.395Z,66.90
2018-05-10T00:57:09.064Z,66.20
2018-05-10T00:59:36.624Z,66.60
2018-05-10T01:02:04.190Z,66.60
2018-05-10T01:04:31.716Z,66.50
2018-05-10T01:06:59.246Z,66.50
2018-05-10T01:09:26.778Z,67.00
2018-05-10T01:11:54.293Z,66.80
2018-05-10T01:14:21.830Z,67.00
2018-05-10T01:16:49.372Z,67.10
2018-05-10T01:19:16.940Z,67.20
2018-05-10T01:21:44.448Z,67.20
2018-05-10T01:24:12.006Z,67.20
2018-05-10T01:26:39.632Z,67.00
2018-05-10T01:29:07.177Z,66.70
2018-05-10T01:31:35.476Z,66.80
2018-05-10T01:34:03.013Z,66.80
2018-05-10T01:36:31.325Z,67.50
2018-05-10T01:38:58.858Z,67.50
2018-05-10T01:41:27.166Z,68.00
2018-05-10T01:43:54.701Z,68.00
2018-05-10T01:46:23.012Z,68.50
2018-05-10T01:48:50.578Z,68.50
2018-05-10T01:51:18.143Z,68.60
2018-05-10T01:53:45.671Z,69.10
2018-05-10T01:56:14.089Z,70.00
2018-05-10T01:58:41.611Z,69.40
2018-05-10T02:01:09.222Z,69.90
2018-05-10T02:03:36.765Z,69.80
2018-05-10T02:06:04.298Z,70.10
2018-05-10T02:08:32.604Z,70.70
2018-05-10T02:11:01.014Z,70.80
2018-05-10T02:13:28.544Z,70.80
2018-05-10T02:15:56.832Z,70.60
2018-05-10T02:18:25.151Z,70.90
2018-05-10T02:20:52.668Z,70.90
2018-05-10T02:23:20.987Z,70.90
2018-05-10T02:25:48.548Z,70.70
2018-05-10T02:28:16.092Z,71.20
2018-05-10T02:30:44.414Z,70.90
2018-05-10T02:33:11.930Z,70.80
2018-05-10T02:35:40.256Z,71.70
2018-05-10T02:38:07.774Z,71.60
2018-05-10T02:40:36.196Z,71.70
2018-05-10T02:43:03.728Z,71.70
2018-05-10T02:45:32.023Z,71.80
2018-05-10T02:47:59.605Z,71.70
2018-05-10T02:50:27.110Z,71.90
2018-05-10T02:52:55.448Z,71.80
2018-05-10T02:55:22.992Z,71.80
2018-05-10T02:57:51.302Z,72.50
2018-05-10T03:00:18.840Z,72.60
2018-05-10T03:02:46.379Z,72.90
2018-05-10T03:05:13.913Z,73.00
2018-05-10T03:07:41.489Z,73.20
2018-05-10T03:10:09.011Z,73.20
2018-05-10T03:12:36.573Z,73.40
2018-05-10T03:15:04.137Z,73.50
2018-05-10T03:17:31.679Z,73.60
2018-05-10T03:19:59.997Z,74.20
2018-05-10T03:22:27.551Z,74.10
2018-05-10T03:24:55.111Z,74.00
2018-05-10T03:27:22.678Z,74.00
2018-05-10T03:29:50.244Z,73.90
2018-05-10T03:32:17.793Z,73.50
2018-05-10T03:34:45.347Z,73.20
2018-05-10T03:37:13.640Z,73.20
2018-05-10T03:39:41.216Z,73.20
2018-05-10T03:42:08.751Z,73.30
2018-05-10T03:44:37.065Z,73.50
2018-05-10T03:47:04.626Z,73.50
2018-05-10T03:49:32.195Z,73.50
2018-05-10T03:51:59.744Z,73.10
2018-05-10T03:54:27.268Z,72.60
2018-05-10T03:56:54.805Z,72.80
2018-05-10T03:59:22.322Z,72.10
2018-05-10T04:01:50.631Z,71.10
2018-05-10T04:04:29.998Z,71.00
2018-05-10T04:07:10.324Z,70.50
2018-05-10T04:09:49.660Z,70.50
2018-05-10T04:12:17.316Z,70.50
2018-05-10T04:14:44.860Z,70.30
2018-05-10T04:17:13.150Z,70.50
2018-05-10T04:19:40.728Z,70.40
2018-05-10T04:22:08.298Z,70.50
2018-05-10T04:24:35.828Z,70.60
2018-05-10T04:27:04.136Z,70.30
2018-05-10T04:29:31.680Z,70.30
2018-05-10T04:31:59.971Z,70.10
2018-05-10T04:34:27.652Z,70.20
2018-05-10T04:36:55.218Z,70.00
2018-05-10T04:39:22.779Z,69.90
2018-05-10T04:41:50.306Z,69.60
2018-05-10T04:44:17.829Z,69.40
2018-05-10T04:46:45.385Z,69.10
2018-05-10T04:49:12.927Z,69.00
2018-05-10T04:51:40.475Z,69.10
2018-05-10T04:54:08.779Z,68.80
2018-05-10T04:56:36.323Z,68.70
2018-05-10T04:59:04.608Z,68.30
2018-05-10T05:01:32.199Z,68.30
2018-05-10T05:03:59.857Z,68.40
2018-05-10T05:06:27.389Z,68.20
2018-05-10T05:08:55.764Z,67.90
2018-05-10T05:11:23.378Z,67.90
2018-05-10T05:13:50.893Z,67.70
2018-05-10T05:16:18.437Z,67.60
2018-05-10T05:18:45.952Z,67.50
2018-05-10T05:21:13.629Z,67.40
2018-05-10T05:23:41.194Z,67.30
2018-05-10T05:26:08.758Z,67.20
2018-05-10T05:28:36.280Z,67.30
2018-05-10T05:31:04.708Z,66.60
2018-05-10T05:33:32.240Z,66.60
2018-05-10T05:36:00.537Z,67.60
2018-05-10T05:38:28.071Z,67.10
2018-05-10T05:40:55.607Z,67.30
2018-05-10T05:43:23.280Z,67.20
2018-05-10T05:45:50.706Z,66.50
2018-05-10T05:48:18.279Z,66.60
2018-05-10T05:50:45.800Z,66.80
2018-05-10T05:53:13.422Z,66.20
2018-05-10T05:55:41.011Z,66.30
2018-05-10T05:58:08.584Z,66.10
2018-05-10T06:00:36.103Z,65.50
2018-05-10T06:03:03.614Z,66.10
2018-05-10T06:05:31.919Z,68.70
2018-05-10T06:08:00.223Z,69.60
2018-05-10T06:10:27.773Z,69.50
2018-05-10T06:12:55.339Z,68.60
2018-05-10T06:15:22.879Z,68.30
2018-05-10T06:17:51.161Z,67.80
2018-05-10T06:20:19.481Z,67.50
2018-05-10T06:22:48.049Z,67.50
2018-05-10T06:25:15.655Z,67.90
2018-05-10T06:27:43.183Z,66.00
2018-05-10T06:30:10.725Z,67.00
2018-05-10T06:32:39.044Z,66.00
2018-05-10T06:35:06.565Z,66.00
2018-05-10T06:37:34.117Z,66.90
2018-05-10T06:40:01.656Z,66.10
2018-05-10T06:42:29.305Z,66.30
2018-05-10T06:44:57.189Z,67.50
2018-05-10T06:47:24.789Z,67.50
2018-05-10T06:49:52.326Z,67.10
2018-05-10T06:52:19.967Z,68.20
2018-05-10T06:54:47.529Z,67.00
2018-05-10T06:57:15.085Z,64.40
2018-05-10T06:59:42.639Z,65.00
2018-05-10T07:02:10.924Z,65.80
2018-05-10T07:04:39.325Z,65.10
2018-05-10T07:07:06.873Z,65.10
2018-05-10T07:09:35.248Z,64.50
2018-05-10T07:12:02.735Z,64.40
2018-05-10T07:14:30.299Z,62.90
2018-05-10T07:16:57.868Z,64.20
2018-05-10T07:19:25.426Z,64.90
2018-05-10T07:21:52.939Z,63.00
2018-05-10T07:24:20.488Z,63.90
2018-05-10T07:26:48.013Z,62.90
2018-05-10T07:29:15.545Z,63.00
2018-05-10T07:31:43.104Z,61.10
2018-05-10T07:34:11.408Z,60.60
2018-05-10T07:36:39.817Z,60.00
2018-05-10T07:39:07.380Z,59.90
2018-05-10T07:41:34.950Z,60.90
2018-05-10T07:44:02.481Z,60.20
2018-05-10T07:46:30.889Z,57.80
2018-05-10T07:48:58.454Z,57.80
2018-05-10T07:51:26.008Z,60.20
2018-05-10T07:53:53.539Z,60.20
2018-05-10T07:56:21.061Z,56.20
2018-05-10T07:58:48.619Z,56.50
2018-05-10T08:01:16.181Z,56.30
2018-05-10T08:03:43.738Z,52.80
2018-05-10T08:06:11.308Z,52.40
2018-05-10T08:08:38.836Z,52.50
2018-05-10T08:11:07.139Z,53.10
2018-05-10T08:13:35.452Z,54.60
2018-05-10T08:16:02.982Z,54.60
2018-05-10T08:18:30.520Z,52.80
2018-05-10T08:20:58.942Z,50.60
2018-05-10T08:23:26.480Z,50.60
2018-05-10T08:25:54.894Z,48.80
2018-05-10T08:28:22.455Z,48.70
2018-05-10T08:30:49.997Z,48.70
2018-05-10T08:33:18.302Z,49.30
2018-05-10T08:35:45.864Z,49.30
2018-05-10T08:38:13.434Z,50.60
2018-05-10T08:40:40.975Z,52.20
2018-05-10T08:43:09.387Z,53.00
2018-05-10T08:45:36.868Z,52.80
2018-05-10T08:48:04.609Z,52.30
2018-05-10T08:50:32.157Z,52.20
2018-05-10T08:53:00.558Z,53.40
2018-05-10T08:55:28.102Z,53.40
2018-05-10T08:57:56.402Z,52.20
2018-05-10T09:00:23.942Z,52.20
2018-05-10T09:02:52.274Z,50.60
2018-05-10T09:05:19.832Z,50.60
2018-05-10T09:07:48.119Z,49.60
2018-05-10T09:10:15.646Z,49.40
2018-05-10T09:12:43.210Z,51.10
2018-05-10T09:15:10.759Z,49.20
2018-05-10T09:17:39.075Z,49.00
2018-05-10T09:20:06.612Z,49.00
2018-05-10T09:22:35.017Z,48.00
2018-05-10T09:25:02.594Z,48.00
2018-05-10T09:27:30.248Z,47.10
2018-05-10T09:29:57.803Z,45.60
2018-05-10T09:32:25.331Z,46.00
2018-05-10T09:34:52.914Z,45.70
2018-05-10T09:37:21.247Z,46.80
2018-05-10T09:39:48.789Z,46.40
2018-05-10T09:42:16.350Z,47.10
2018-05-10T09:44:44.020Z,45.40
2018-05-10T09:47:11.565Z,45.40
2018-05-10T09:49:39.908Z,45.90
2018-05-10T09:52:07.545Z,46.20
2018-05-10T09:54:35.198Z,44.40
2018-05-10T09:57:02.742Z,46.00
2018-05-10T09:59:30.283Z,44.80
2018-05-10T10:01:57.841Z,44.70
2018-05-10T10:04:26.123Z,47.20
2018-05-10T10:06:53.697Z,47.30
2018-05-10T10:09:21.229Z,46.00
2018-05-10T10:11:48.867Z,44.70
2018-05-10T10:14:16.413Z,43.50
2018-05-10T10:16:44.739Z,44.90
2018-05-10T10:19:12.389Z,44.80
2018-05-10T10:21:40.052Z,47.90
2018-05-10T10:24:07.582Z,46.30
2018-05-10T10:26:35.889Z,45.20
2018-05-10T10:29:03.433Z,45.00
2018-05-10T10:31:31.753Z,46.00
2018-05-10T10:33:59.305Z,45.60
2018-05-10T10:36:26.848Z,42.90
2018-05-10T10:38:55.166Z,45.60
2018-05-10T10:41:22.710Z,45.60
2018-05-10T10:43:50.259Z,45.50
2018-05-10T10:46:18.601Z,47.10
2018-05-10T10:48:46.169Z,47.10
2018-05-10T10:51:13.728Z,46.50
2018-05-10T10:53:41.252Z,47.70
2018-05-10T10:56:08.924Z,48.90
2018-05-10T10:58:36.484Z,47.20
2018-05-10T11:01:04.024Z,48.30
2018-05-10T11:03:32.351Z,48.50
2018-05-10T11:05:59.911Z,48.40
2018-05-10T11:08:27.469Z,49.70
2018-05-10T11:10:54.997Z,49.60
2018-05-10T11:13:23.313Z,49.20
2018-05-10T11:15:50.884Z,49.20
2018-05-10T11:18:18.449Z,51.30
2018-05-10T11:20:46.094Z,46.90
2018-05-10T11:23:13.582Z,48.30
2018-05-10T11:25:41.173Z,48.00
2018-05-10T11:28:08.795Z,47.20
2018-05-10T11:30:36.363Z,49.40
2018-05-10T11:33:03.921Z,49.50
2018-05-10T11:35:32.363Z,50.40
2018-05-10T11:37:59.895Z,50.10
2018-05-10T11:40:27.461Z,50.70
2018-05-10T11:42:55.024Z,50.00
2018-05-10T11:45:22.585Z,50.70
2018-05-10T11:47:50.232Z,50.90
2018-05-10T11:50:17.757Z,50.90
2018-05-10T11:52:45.290Z,50.30
2018-05-10T11:55:12.820Z,49.70
2018-05-10T11:57:40.452Z,50.00
2018-05-10T12:00:07.918Z,49.90
2018-05-10T12:02:36.388Z,50.00
2018-05-10T12:05:03.883Z,49.90
2018-05-10T12:07:31.473Z,49.40
2018-05-10T12:09:59.045Z,48.00
2018-05-10T12:12:26.590Z,48.60
2018-05-10T12:14:54.157Z,49.20
2018-05-10T12:17:21.673Z,49.10
2018-05-10T12:19:49.237Z,48.90
2018-05-10T12:22:16.770Z,49.20
2018-05-10T12:24:44.340Z,50.00
2018-05-10T12:27:11.979Z,49.40
2018-05-10T12:29:39.550Z,51.00
2018-05-10T12:32:07.114Z,50.80
2018-05-10T12:34:34.780Z,50.30
2018-05-10T12:37:02.334Z,50.20
2018-05-10T12:39:29.875Z,49.20
2018-05-10T12:41:58.287Z,47.40
2018-05-10T12:44:25.833Z,47.40
2018-05-10T12:46:54.240Z,49.00
2018-05-10T12:49:21.769Z,48.90
2018-05-10T12:51:50.095Z,48.70
2018-05-10T12:54:17.707Z,48.60
2018-05-10T12:56:45.257Z,48.70
2018-05-10T12:59:12.804Z,49.80
2018-05-10T13:01:40.441Z,49.50
2018-05-10T13:04:07.988Z,50.50
2018-05-10T13:06:35.530Z,49.80
2018-05-10T13:09:03.143Z,50.40
2018-05-10T13:11:30.679Z,51.40
2018-05-10T13:13:58.995Z,48.70
2018-05-10T13:16:26.559Z,48.70
2018-05-10T13:18:54.137Z,49.20
2018-05-10T13:21:21.684Z,49.10
2018-05-10T13:23:49.347Z,49.20
2018-05-10T13:26:16.885Z,49.50
2018-05-10T13:28:45.289Z,48.30
2018-05-10T13:31:12.854Z,48.30
2018-05-10T13:33:40.376Z,48.20
2018-05-10T13:36:08.718Z,48.60
2018-05-10T13:38:36.242Z,47.90
2018-05-10T13:41:04.037Z,46.90
2018-05-10T13:43:31.565Z,44.60
2018-05-10T13:45:59.879Z,46.10
2018-05-10T13:48:27.462Z,46.20
2018-05-10T13:50:55.046Z,48.00
2018-05-10T13:53:22.590Z,47.30
2018-05-10T13:55:50.242Z,47.00
2018-05-10T13:58:17.906Z,47.30
2018-05-10T14:00:45.420Z,47.30
2018-05-10T14:03:12.957Z,46.20
2018-05-10T14:05:40.500Z,46.60
2018-05-10T14:08:08.050Z,47.90
2018-05-10T14:10:35.729Z,47.30
2018-05-10T14:13:03.311Z,46.90
2018-05-10T14:15:30.870Z,46.60
2018-05-10T14:17:58.413Z,47.00
2018-05-10T14:20:25.965Z,46.40
2018-05-10T14:22:54.375Z,46.70
2018-05-10T14:25:21.932Z,46.70
2018-05-10T14:27:49.489Z,46.60
2018-05-10T14:30:17.153Z,46.60
2018-05-10T14:32:44.834Z,47.40
2018-05-10T14:35:12.300Z,48.00
2018-05-10T14:37:39.831Z,48.60
2018-05-10T14:40:08.222Z,48.60
2018-05-10T14:42:36.528Z,48.70
2018-05-10T14:45:04.105Z,48.70
2018-05-10T14:47:31.654Z,48.10
2018-05-10T14:49:59.177Z,48.50
2018-05-10T14:52:26.722Z,47.90
2018-05-10T14:54:54.267Z,48.30
2018-05-10T14:57:21.815Z,48.20
2018-05-10T14:59:49.392Z,48.00
2018-05-10T15:02:16.952Z,48.60
2018-05-10T15:04:44.607Z,47.10
2018-05-10T15:07:12.172Z,46.70
2018-05-10T15:09:39.708Z,47.10
2018-05-10T15:12:08.017Z,49.10
2018-05-10T15:14:35.565Z,49.00
2018-05-10T15:17:03.185Z,49.50
2018-05-10T15:19:32.233Z,50.70
2018-05-10T15:21:59.774Z,50.70
2018-05-10T15:24:28.170Z,51.60
2018-05-10T15:26:56.497Z,52.20
2018-05-10T15:29:24.045Z,52.10
2018-05-10T15:31:51.590Z,54.10
2018-05-10T15:34:19.251Z,57.20
2018-05-10T15:36:47.561Z,61.70
2018-05-10T15:39:15.203Z,61.50
2018-05-10T15:41:42.679Z,62.60
2018-05-10T15:44:10.216Z,66.30
2018-05-10T15:46:38.637Z,70.70
2018-05-10T15:49:06.195Z,70.70
2018-05-10T15:51:33.783Z,69.90
2018-05-10T15:54:01.323Z,71.90
2018-05-10T15:56:28.896Z,72.20
2018-05-10T15:58:56.431Z,72.70
2018-05-10T16:01:24.760Z,74.20
2018-05-10T16:03:52.401Z,74.10
2018-05-10T16:06:19.938Z,74.30
2018-05-10T16:08:48.353Z,74.70
2018-05-10T16:11:15.995Z,74.70
2018-05-10T16:13:43.578Z,74.10
2018-05-10T16:16:11.119Z,73.30
2018-05-10T16:18:39.439Z,69.30
2018-05-10T16:21:07.096Z,69.20
2018-05-10T16:23:34.691Z,70.10
2018-05-10T16:26:02.325Z,69.20
2018-05-10T16:28:29.863Z,69.70
2018-05-10T16:30:58.246Z,66.90
2018-05-10T16:33:25.940Z,66.90
2018-05-10T16:35:53.562Z,66.90
2018-05-10T16:38:21.177Z,66.80
2018-05-10T16:40:48.769Z,67.30
2018-05-10T16:43:16.402Z,67.10
2018-05-10T16:45:44.003Z,66.70
2018-05-10T16:48:11.538Z,66.40
2018-05-10T16:50:39.084Z,64.40
2018-05-10T16:53:06.671Z,63.20
2018-05-10T16:55:34.223Z,63.50
2018-05-10T16:58:01.803Z,63.10
2018-05-10T17:00:29.448Z,64.50
2018-05-10T17:02:57.034Z,63.90
2018-05-10T17:05:24.581Z,63.70
2018-05-10T17:07:52.143Z,63.20
2018-05-10T17:10:19.715Z,63.60
2018-05-10T17:12:47.383Z,63.70
2018-05-10T17:15:15.048Z,63.50
2018-05-10T17:17:42.713Z,63.10
2018-05-10T17:20:10.347Z,62.90
2018-05-10T17:22:38.763Z,62.60
2018-05-10T17:25:06.432Z,62.50
2018-05-10T17:27:35.662Z,62.70
2018-05-10T17:30:03.330Z,63.00
2018-05-10T17:32:30.954Z,62.70
2018-05-10T17:34:58.879Z,62.60
2018-05-10T17:37:26.504Z,62.80
2018-05-10T17:39:55.151Z,62.40
2018-05-10T17:42:22.864Z,63.50
2018-05-10T17:44:50.476Z,63.00
2018-05-10T17:47:19.126Z,63.50
2018-05-10T17:49:46.886Z,63.50
2018-05-10T17:52:15.492Z,64.70
2018-05-10T17:54:43.762Z,64.80
2018-05-10T17:57:12.095Z,64.70
2018-05-10T17:59:39.800Z,65.20
2018-05-10T18:02:08.042Z,65.50
2018-05-10T18:04:37.397Z,65.20
2018-05-10T18:07:05.012Z,65.10
2018-05-10T18:09:33.413Z,65.10
2018-05-10T18:12:01.830Z,65.60
2018-05-10T18:14:29.453Z,65.50
2018-05-10T18:16:57.979Z,65.40
2018-05-10T18:19:25.638Z,65.40
2018-05-10T18:21:53.314Z,65.60
2018-05-10T18:24:20.991Z,65.70
2018-05-10T18:26:48.691Z,65.20
2018-05-10T18:29:16.335Z,64.90
2018-05-10T18:31:44.184Z,65.30
2018-05-10T18:34:12.064Z,64.90
2018-05-10T18:36:39.935Z,65.70
2018-05-10T18:39:07.801Z,65.10
2018-05-10T18:41:36.390Z,65.40
2018-05-10T18:44:04.057Z,65.50
2018-05-10T18:46:32.053Z,65.10
2018-05-10T18:48:59.799Z,65.50
2018-05-10T18:51:27.788Z,65.40
2018-05-10T18:53:57.409Z,65.50
2018-05-10T18:56:25.561Z,65.50
2018-05-10T18:58:54.075Z,65.80
2018-05-10T19:01:21.932Z,66.10
2018-05-10T19:03:51.026Z,66.10
2018-05-10T19:06:19.719Z,66.50
2018-05-10T19:08:48.524Z,66.60
2018-05-10T19:11:16.388Z,66.80
2018-05-10T19:13:45.610Z,66.60
2018-05-10T19:16:14.293Z,67.40
2018-05-10T19:18:42.167Z,67.40
2018-05-10T19:21:10.805Z,67.40
2018-05-10T19:23:38.712Z,67.20
2018-05-10T19:26:06.580Z,67.10
2018-05-10T19:28:34.555Z,67.20
2018-05-10T19:31:02.246Z,67.50
2018-05-10T19:33:30.190Z,67.40
2018-05-10T19:35:57.976Z,68.00
2018-05-10T19:38:26.557Z,68.00
2018-05-10T19:40:54.347Z,68.10
2018-05-10T19:43:23.071Z,68.20
2018-05-10T19:45:51.899Z,68.30
2018-05-10T19:48:19.774Z,68.30
2018-05-10T19:50:47.572Z,68.50
2018-05-10T19:53:15.432Z,68.30
2018-05-10T19:55:44.013Z,68.40
2018-05-10T19:58:12.802Z,68.60
2018-05-10T20:00:41.077Z,68.60
2018-05-10T20:03:08.943Z,68.60
2018-05-10T20:05:37.106Z,68.40
2018-05-10T20:08:05.719Z,68.60
2018-05-10T20:10:33.588Z,68.60
2018-05-10T20:13:01.381Z,68.80
2018-05-10T20:15:29.538Z,68.90
2018-05-10T20:17:58.221Z,69.00
2018-05-10T20:20:25.872Z,69.00
2018-05-10T20:22:54.141Z,69.00
2018-05-10T20:25:22.519Z,69.30
2018-05-10T20:27:50.922Z,69.80
2018-05-10T20:30:18.925Z,69.80
2018-05-10T20:32:46.676Z,69.80
2018-05-10T20:35:14.320Z,70.30
2018-05-10T20:37:42.009Z,71.00
2018-05-10T20:40:09.630Z,71.00
2018-05-10T20:42:38.573Z,71.60
2018-05-10T20:45:06.226Z,71.60
2018-05-10T20:47:34.007Z,71.70
2018-05-10T20:50:01.634Z,72.30
2018-05-10T20:52:30.055Z,74.20
2018-05-10T20:54:57.659Z,74.10
2018-05-10T20:57:25.911Z,75.20
2018-05-10T20:59:53.501Z,76.30
2018-05-10T21:02:21.068Z,77.50
2018-05-10T21:04:48.611Z,78.60
2018-05-10T21:07:16.156Z,79.90
2018-05-10T21:09:43.722Z,81.10
2018-05-10T21:12:23.363Z,82.30
2018-05-10T21:14:50.902Z,84.30
2018-05-10T21:17:19.234Z,86.00
2018-05-10T21:19:46.778Z,85.90
2018-05-10T21:22:14.304Z,87.00
2018-05-10T21:24:42.782Z,87.30
2018-05-10T21:27:10.360Z,87.50
2018-05-10T21:29:39.607Z,88.70
2018-05-10T21:32:07.165Z,88.70
2018-05-10T21:34:34.718Z,89.20
2018-05-10T21:37:02.266Z,89.10
2018-05-10T21:39:30.594Z,90.20
2018-05-10T21:41:58.135Z,90.10
2018-05-10T21:44:25.697Z,90.20
2018-05-10T21:46:53.231Z,90.40
2018-05-10T21:49:33.482Z,90.40
2018-05-10T21:52:01.772Z,90.00
2018-05-10T21:54:30.184Z,90.10
2018-05-10T21:56:57.773Z,90.10
2018-05-10T21:59:25.334Z,90.30
2018-05-10T22:01:52.875Z,90.20
2018-05-10T22:04:20.540Z,90.20
2018-05-10T22:06:48.177Z,89.50
2018-05-10T22:09:15.655Z,89.40
2018-05-10T22:11:43.215Z,90.00
2018-05-10T22:14:10.749Z,89.70
2018-05-10T22:16:38.287Z,89.30
2018-05-10T22:19:05.843Z,89.70
2018-05-10T22:21:33.381Z,89.60
2018-05-10T22:24:00.927Z,89.40
2018-05-10T22:26:29.234Z,89.40
2018-05-10T22:28:56.761Z,89.40
2018-05-10T22:31:24.282Z,89.10
2018-05-10T22:33:51.867Z,89.70
2018-05-10T22:36:19.492Z,89.70
2018-05-10T22:38:47.058Z,89.20
2018-05-10T22:41:14.727Z,89.10
2018-05-10T22:43:42.227Z,89.20
2018-05-10T22:46:09.767Z,88.70
2018-05-10T22:48:37.314Z,88.60
2018-05-10T22:51:04.860Z,88.40
2018-05-10T22:53:33.162Z,88.50
2018-05-10T22:56:00.778Z,88.50
2018-05-10T22:58:28.288Z,88.60
2018-05-10T23:00:55.956Z,88.40
2018-05-10T23:03:23.484Z,87.70
2018-05-10T23:05:51.778Z,88.50
2018-05-10T23:08:20.083Z,87.90
2018-05-10T23:10:47.607Z,87.80
2018-05-10T23:13:15.167Z,87.40
2018-05-10T23:15:42.679Z,88.00
2018-05-10T23:18:10.239Z,88.30
2018-05-10T23:20:37.767Z,87.90
2018-05-10T23:23:05.311Z,88.10
2018-05-10T23:25:32.935Z,87.60
2018-05-10T23:28:00.485Z,87.60
2018-05-10T23:30:28.019Z,87.70
2018-05-10T23:32:55.584Z,87.20
2018-05-10T23:35:23.115Z,88.50
2018-05-10T23:37:50.651Z,87.90
2018-05-10T23:40:18.193Z,88.50
2018-05-10T23:42:46.499Z,88.10
2018-05-10T23:45:14.064Z,88.00
2018-05-10T23:47:41.594Z,88.90
2018-05-10T23:50:09.913Z,88.60
2018-05-10T23:52:37.447Z,88.50
2018-05-10T23:55:05.760Z,89.10
2018-05-10T23:57:33.420Z,89.10
